Terminal Aerodrome Forecast
Issued by NWS

Home | Current Version | Previous Version | Text Only | Print | Product List | Glossary Off
Versions: 1 2 3 4 5 6 7 8 9 10 11 12 13 14 15 16

000
FTUS43 KGRB 281735
TAFMTW
TAF
KMTW 281735Z 2818/2918 24009G14KT P6SM BKN028
      TEMPO 2818/2821 SCT030 SCT100
     FM282100 27007KT P6SM SCT050 BKN100
     FM290300 35006KT P6SM OVC050 PROB30 2903/2905 5SM -RA BR OVC025
     FM290500 36008KT P6SM BKN060
     FM290700 01009KT P6SM BKN080 BKN200
     FM291500 04014KT P6SM FEW060 BKN200=

USA.gov is the U.S. government's official web portal to all federal, state and local government web resources and services.